createdAt,value
2017-01-31T00:00:28.893Z,0
2017-01-31T00:01:28.869Z,0
2017-01-31T00:02:28.891Z,0
2017-01-31T00:03:28.855Z,0
2017-01-31T00:04:28.812Z,0
2017-01-31T00:05:28.596Z,0
2017-01-31T00:06:28.766Z,0
2017-01-31T00:07:28.749Z,0
2017-01-31T00:08:27.961Z,0
2017-01-31T00:09:28.312Z,0
2017-01-31T00:10:28.692Z,0
2017-01-31T00:11:28.667Z,0
2017-01-31T00:12:28.647Z,0
2017-01-31T00:13:28.226Z,0
2017-01-31T00:14:28.596Z,0
2017-01-31T00:15:28.577Z,0
2017-01-31T00:16:28.567Z,0
2017-01-31T00:17:28.143Z,0
2017-01-31T00:18:28.119Z,0
2017-01-31T00:19:28.504Z,0
2017-01-31T00:20:28.474Z,0
2017-01-31T00:21:28.451Z,0
2017-01-31T00:22:28.429Z,0
2017-01-31T00:23:28.409Z,0
2017-01-31T00:24:28.390Z,0
2017-01-31T00:25:28.369Z,0
2017-01-31T00:26:27.950Z,0
2017-01-31T00:27:28.323Z,0
2017-01-31T00:28:28.304Z,0
2017-01-31T00:29:28.286Z,0
2017-01-31T00:30:28.270Z,0
2017-01-31T00:31:28.241Z,0
2017-01-31T00:32:28.231Z,0
2017-01-31T00:33:27.801Z,0
2017-01-31T00:34:28.179Z,0
2017-01-31T00:35:28.160Z,0
2017-01-31T00:36:28.133Z,0
2017-01-31T00:37:28.116Z,0
2017-01-31T00:38:28.095Z,0
2017-01-31T00:39:28.100Z,0
2017-01-31T00:40:28.055Z,0
2017-01-31T00:41:28.025Z,0
2017-01-31T00:42:28.017Z,0
2017-01-31T00:43:27.989Z,0
2017-01-31T00:44:27.972Z,0
2017-01-31T00:45:27.946Z,0
2017-01-31T00:46:27.932Z,0
2017-01-31T00:47:27.911Z,0
2017-01-31T00:48:27.889Z,0
2017-01-31T00:49:27.861Z,0
2017-01-31T00:50:27.839Z,0
2017-01-31T00:51:27.821Z,0
2017-01-31T00:52:27.803Z,0
2017-01-31T00:53:27.778Z,0
2017-01-31T00:54:27.761Z,0
2017-01-31T00:55:27.748Z,0
2017-01-31T00:56:27.713Z,0
2017-01-31T00:57:27.703Z,0
2017-01-31T00:58:27.279Z,0
2017-01-31T00:59:27.651Z,0
2017-01-31T01:00:27.625Z,0
2017-01-31T01:01:27.609Z,0
2017-01-31T01:02:27.590Z,0
2017-01-31T01:03:27.568Z,0
2017-01-31T01:04:27.547Z,0
2017-01-31T01:05:27.125Z,0
2017-01-31T01:06:27.123Z,0
2017-01-31T01:07:27.483Z,0
2017-01-31T01:08:27.498Z,0
2017-01-31T01:09:27.444Z,0
2017-01-31T01:10:27.420Z,0
2017-01-31T01:11:27.399Z,0
2017-01-31T01:12:27.385Z,0
2017-01-31T01:13:27.356Z,0
2017-01-31T01:14:27.334Z,0
2017-01-31T01:15:27.317Z,0
2017-01-31T01:16:26.931Z,0
2017-01-31T01:17:27.270Z,0
2017-01-31T01:18:27.260Z,0
2017-01-31T01:19:27.229Z,0
2017-01-31T01:20:27.209Z,0
2017-01-31T01:21:27.188Z,0
2017-01-31T01:22:27.167Z,0
2017-01-31T01:23:27.146Z,0
2017-01-31T01:24:27.130Z,0
2017-01-31T01:25:27.103Z,0
2017-01-31T01:26:27.078Z,0
2017-01-31T01:27:27.114Z,0
2017-01-31T01:28:27.093Z,0
2017-01-31T01:29:26.626Z,0
2017-01-31T01:30:26.604Z,0
2017-01-31T01:31:26.974Z,0
2017-01-31T01:32:26.954Z,0
2017-01-31T01:33:26.935Z,0
2017-01-31T01:34:26.907Z,0
2017-01-31T01:35:26.895Z,0
2017-01-31T01:36:26.474Z,0
2017-01-31T01:37:26.845Z,0
2017-01-31T01:38:26.831Z,0
2017-01-31T01:39:26.804Z,0
2017-01-31T01:40:26.786Z,0
2017-01-31T01:41:26.759Z,0
2017-01-31T01:42:26.748Z,0
2017-01-31T01:43:26.727Z,0
2017-01-31T01:44:26.707Z,0
2017-01-31T01:45:26.678Z,0
2017-01-31T01:46:26.660Z,0
2017-01-31T01:47:26.656Z,0
2017-01-31T01:48:26.619Z,0
2017-01-31T01:49:26.602Z,0
2017-01-31T01:50:26.181Z,0
2017-01-31T01:51:26.553Z,0
2017-01-31T01:52:26.536Z,0
2017-01-31T01:53:26.512Z,0
2017-01-31T01:54:26.488Z,0
2017-01-31T01:55:26.469Z,0
2017-01-31T01:56:26.447Z,0
2017-01-31T01:57:26.429Z,0
2017-01-31T01:58:26.408Z,0
2017-01-31T01:59:26.382Z,0
2017-01-31T02:00:25.980Z,0
2017-01-31T02:01:26.337Z,0
2017-01-31T02:02:26.323Z,0
2017-01-31T02:03:26.300Z,0
2017-01-31T02:04:26.282Z,0
2017-01-31T02:05:26.103Z,0
2017-01-31T02:06:26.238Z,0
2017-01-31T02:07:26.215Z,0
2017-01-31T02:08:26.201Z,0
2017-01-31T02:09:25.779Z,0
2017-01-31T02:10:26.149Z,0
2017-01-31T02:11:26.132Z,0
2017-01-31T02:12:26.142Z,0
2017-01-31T02:13:26.088Z,0
2017-01-31T02:14:25.675Z,0
2017-01-31T02:15:26.043Z,0
2017-01-31T02:16:26.027Z,0
2017-01-31T02:17:26.013Z,0
2017-01-31T02:18:25.585Z,0
2017-01-31T02:19:25.958Z,0
2017-01-31T02:20:25.944Z,0
2017-01-31T02:21:25.919Z,0
2017-01-31T02:22:25.899Z,0
2017-01-31T02:23:25.876Z,0
2017-01-31T02:24:25.862Z,0
2017-01-31T02:25:25.844Z,0
2017-01-31T02:26:25.422Z,0
2017-01-31T02:27:25.401Z,0
2017-01-31T02:28:25.780Z,0
2017-01-31T02:29:25.754Z,0
2017-01-31T02:30:25.740Z,0
2017-01-31T02:31:25.713Z,0
2017-01-31T02:32:25.696Z,0
2017-01-31T02:33:25.680Z,0
2017-01-31T02:34:25.652Z,0
2017-01-31T02:35:25.234Z,0
2017-01-31T02:36:25.604Z,0
2017-01-31T02:37:25.588Z,0
2017-01-31T02:38:25.563Z,0
2017-01-31T02:39:25.542Z,0
2017-01-31T02:40:25.519Z,0
2017-01-31T02:41:25.497Z,0
2017-01-31T02:42:25.086Z,0
2017-01-31T02:43:25.457Z,0
2017-01-31T02:44:25.440Z,0
2017-01-31T02:45:25.417Z,0
2017-01-31T02:46:25.425Z,0
2017-01-31T02:47:25.371Z,0
2017-01-31T02:48:25.349Z,0
2017-01-31T02:49:24.541Z,0
2017-01-31T02:50:25.308Z,0
2017-01-31T02:51:25.321Z,0
2017-01-31T02:52:24.880Z,0
2017-01-31T02:53:25.243Z,0
2017-01-31T02:54:25.225Z,0
2017-01-31T02:55:24.812Z,0
2017-01-31T02:56:25.190Z,0
2017-01-31T02:57:25.163Z,0
2017-01-31T02:58:25.139Z,0
2017-01-31T02:59:25.122Z,0
2017-01-31T03:00:25.109Z,0
2017-01-31T03:01:25.082Z,0
2017-01-31T03:02:25.063Z,0
2017-01-31T03:03:24.639Z,0
2017-01-31T03:04:24.657Z,0
2017-01-31T03:05:24.612Z,0
2017-01-31T03:06:24.973Z,0
2017-01-31T03:07:24.954Z,0
2017-01-31T03:08:24.931Z,0
2017-01-31T03:09:24.918Z,0
2017-01-31T03:10:24.905Z,0
2017-01-31T03:11:24.897Z,0
2017-01-31T03:12:24.447Z,0
2017-01-31T03:13:24.828Z,0
2017-01-31T03:14:24.800Z,0
2017-01-31T03:15:24.787Z,0
2017-01-31T03:16:24.359Z,0
2017-01-31T03:17:24.753Z,0
2017-01-31T03:18:24.719Z,0
2017-01-31T03:19:24.301Z,0
2017-01-31T03:20:24.283Z,0
2017-01-31T03:21:24.656Z,0
2017-01-31T03:22:24.643Z,0
2017-01-31T03:23:24.614Z,0
2017-01-31T03:24:24.595Z,0
2017-01-31T03:25:24.583Z,0
2017-01-31T03:26:24.549Z,0
2017-01-31T03:27:24.532Z,0
2017-01-31T03:28:24.514Z,0
2017-01-31T03:29:24.482Z,0
2017-01-31T03:30:24.471Z,0
2017-01-31T03:31:24.449Z,0
2017-01-31T03:32:24.425Z,0
2017-01-31T03:33:24.407Z,0
2017-01-31T03:34:24.389Z,0
2017-01-31T03:35:24.367Z,0
2017-01-31T03:36:24.364Z,0
2017-01-31T03:37:23.928Z,0
2017-01-31T03:38:24.299Z,0
2017-01-31T03:39:24.310Z,0
2017-01-31T03:40:24.264Z,0
2017-01-31T03:41:24.250Z,0
2017-01-31T03:42:24.216Z,0
2017-01-31T03:43:24.209Z,0
2017-01-31T03:44:24.172Z,0
2017-01-31T03:45:24.170Z,0
2017-01-31T03:46:24.166Z,0
2017-01-31T03:47:24.120Z,0
2017-01-31T03:48:23.693Z,0
2017-01-31T03:49:24.066Z,0
2017-01-31T03:50:24.046Z,0
2017-01-31T03:51:24.030Z,0
2017-01-31T03:52:24.013Z,0
2017-01-31T03:53:23.588Z,0
2017-01-31T03:54:23.965Z,0
2017-01-31T03:55:23.952Z,0
2017-01-31T03:56:23.928Z,0
2017-01-31T03:57:23.909Z,0
2017-01-31T03:58:23.485Z,0
2017-01-31T03:59:23.506Z,0
2017-01-31T04:00:23.840Z,0
2017-01-31T04:01:23.428Z,0
2017-01-31T04:02:23.796Z,0
2017-01-31T04:03:23.413Z,0
2017-01-31T04:04:23.756Z,0
2017-01-31T04:05:23.946Z,0
2017-01-31T04:06:23.718Z,0
2017-01-31T04:07:23.300Z,0
2017-01-31T04:08:23.361Z,0
2017-01-31T04:09:23.678Z,0
2017-01-31T04:10:23.247Z,0
2017-01-31T04:11:23.616Z,0
2017-01-31T04:12:23.590Z,0
2017-01-31T04:13:23.565Z,0
2017-01-31T04:14:23.552Z,0
2017-01-31T04:15:23.528Z,0
2017-01-31T04:16:22.715Z,0
2017-01-31T04:17:23.103Z,0
2017-01-31T04:18:23.471Z,0
2017-01-31T04:19:23.048Z,0
2017-01-31T04:20:23.425Z,0
2017-01-31T04:21:23.404Z,0
2017-01-31T04:22:23.381Z,0
2017-01-31T04:23:23.366Z,0
2017-01-31T04:24:23.346Z,0
2017-01-31T04:25:22.918Z,0
2017-01-31T04:26:23.299Z,0
2017-01-31T04:27:23.274Z,0
2017-01-31T04:28:23.259Z,0
2017-01-31T04:29:23.247Z,0
2017-01-31T04:30:23.214Z,0
2017-01-31T04:31:23.203Z,0
2017-01-31T04:32:23.180Z,0
2017-01-31T04:33:23.156Z,0
2017-01-31T04:34:23.140Z,0
2017-01-31T04:35:23.117Z,0
2017-01-31T04:36:23.162Z,0
2017-01-31T04:37:23.091Z,0
2017-01-31T04:38:22.264Z,0
2017-01-31T04:39:23.037Z,0
2017-01-31T04:40:22.609Z,0
2017-01-31T04:41:22.991Z,0
2017-01-31T04:42:22.967Z,0
2017-01-31T04:43:22.948Z,0
2017-01-31T04:44:22.921Z,0
2017-01-31T04:45:22.902Z,0
2017-01-31T04:46:22.890Z,0
2017-01-31T04:47:22.468Z,0
2017-01-31T04:48:22.840Z,0
2017-01-31T04:49:22.829Z,0
2017-01-31T04:50:22.796Z,0
2017-01-31T04:51:22.388Z,0
2017-01-31T04:52:22.774Z,0
2017-01-31T04:53:22.734Z,0
2017-01-31T04:54:22.323Z,0
2017-01-31T04:55:22.699Z,0
2017-01-31T04:56:22.678Z,0
2017-01-31T04:57:22.655Z,0
2017-01-31T04:58:22.630Z,0
2017-01-31T04:59:22.615Z,0
2017-01-31T05:00:22.596Z,0
2017-01-31T05:01:22.610Z,0
2017-01-31T05:02:22.557Z,0
2017-01-31T05:03:22.530Z,0
2017-01-31T05:04:22.526Z,0
2017-01-31T05:05:22.491Z,0
2017-01-31T05:06:22.072Z,0
2017-01-31T05:07:22.456Z,0
2017-01-31T05:08:22.426Z,0
2017-01-31T05:09:22.009Z,0
2017-01-31T05:10:22.399Z,0
2017-01-31T05:11:22.364Z,0
2017-01-31T05:12:22.369Z,0
2017-01-31T05:13:22.327Z,0
2017-01-31T05:14:22.303Z,0
2017-01-31T05:15:22.285Z,0
2017-01-31T05:16:22.260Z,0
2017-01-31T05:17:21.847Z,0
2017-01-31T05:18:22.230Z,0
2017-01-31T05:19:22.200Z,0
2017-01-31T05:20:21.784Z,0
2017-01-31T05:21:22.169Z,0
2017-01-31T05:22:22.140Z,0
2017-01-31T05:23:21.727Z,0
2017-01-31T05:24:21.313Z,0
2017-01-31T05:25:22.079Z,0
2017-01-31T05:26:22.056Z,0
2017-01-31T05:27:21.634Z,0
2017-01-31T05:28:21.618Z,0
2017-01-31T05:29:21.995Z,0
2017-01-31T05:30:21.580Z,0
2017-01-31T05:31:21.564Z,0
2017-01-31T05:32:21.534Z,0
2017-01-31T05:33:21.537Z,0
2017-01-31T05:34:21.896Z,0
2017-01-31T05:35:21.876Z,0
2017-01-31T05:36:21.859Z,0
2017-01-31T05:37:21.441Z,0
2017-01-31T05:38:21.810Z,0
2017-01-31T05:39:21.805Z,0
2017-01-31T05:40:21.769Z,0
2017-01-31T05:41:21.756Z,0
2017-01-31T05:42:21.731Z,0
2017-01-31T05:43:21.705Z,0
2017-01-31T05:44:21.306Z,0
2017-01-31T05:45:21.666Z,0
2017-01-31T05:46:21.638Z,0
2017-01-31T05:47:21.634Z,0
2017-01-31T05:48:21.608Z,0
2017-01-31T05:49:21.587Z,0
2017-01-31T05:50:21.565Z,0
2017-01-31T05:51:21.145Z,0
2017-01-31T05:52:21.517Z,0
2017-01-31T05:53:21.507Z,0
2017-01-31T05:54:21.488Z,0
2017-01-31T05:55:21.459Z,0
2017-01-31T05:56:21.447Z,0
2017-01-31T05:57:21.441Z,0
2017-01-31T05:58:21.404Z,0
2017-01-31T05:59:21.380Z,0
2017-01-31T06:00:21.355Z,0
2017-01-31T06:01:21.332Z,0
2017-01-31T06:02:20.553Z,0
2017-01-31T06:03:20.912Z,0
2017-01-31T06:04:20.886Z,0
2017-01-31T06:05:21.489Z,0
2017-01-31T06:06:21.242Z,0
2017-01-31T06:07:21.221Z,0
2017-01-31T06:08:21.194Z,0
2017-01-31T06:09:21.173Z,0
2017-01-31T06:10:21.151Z,0
2017-01-31T06:11:21.165Z,0
2017-01-31T06:12:21.112Z,0
2017-01-31T06:13:20.696Z,0
2017-01-31T06:14:20.675Z,0
2017-01-31T06:15:21.054Z,0
2017-01-31T06:16:21.029Z,0
2017-01-31T06:17:21.016Z,0
2017-01-31T06:18:20.987Z,0
2017-01-31T06:19:20.195Z,0
2017-01-31T06:20:20.950Z,0
2017-01-31T06:21:20.537Z,0
2017-01-31T06:22:20.904Z,0
2017-01-31T06:23:20.895Z,0
2017-01-31T06:24:20.465Z,0
2017-01-31T06:25:20.842Z,0
2017-01-31T06:26:20.456Z,0
2017-01-31T06:27:20.819Z,0
2017-01-31T06:28:20.794Z,0
2017-01-31T06:29:20.795Z,0
2017-01-31T06:30:20.347Z,0
2017-01-31T06:31:19.927Z,0
2017-01-31T06:32:20.698Z,0
2017-01-31T06:33:20.674Z,0
2017-01-31T06:34:20.664Z,0
2017-01-31T06:35:20.633Z,0
2017-01-31T06:36:20.614Z,0
2017-01-31T06:37:20.591Z,0
2017-01-31T06:38:20.576Z,0
2017-01-31T06:39:20.552Z,0
2017-01-31T06:40:20.532Z,0
2017-01-31T06:41:20.516Z,0
2017-01-31T06:42:20.491Z,0
2017-01-31T06:43:20.469Z,0
2017-01-31T06:44:20.442Z,0
2017-01-31T06:45:20.425Z,4
2017-01-31T06:46:20.019Z,4
2017-01-31T06:47:20.387Z,4
2017-01-31T06:48:20.386Z,0
2017-01-31T06:49:20.343Z,4
2017-01-31T06:50:20.353Z,0
2017-01-31T06:51:20.308Z,4
2017-01-31T06:52:20.294Z,4
2017-01-31T06:53:20.263Z,8
2017-01-31T06:54:20.236Z,8
2017-01-31T06:55:20.219Z,8
2017-01-31T06:56:20.202Z,8
2017-01-31T06:57:20.181Z,8
2017-01-31T06:58:20.172Z,8
2017-01-31T06:59:20.141Z,12
2017-01-31T07:00:20.132Z,16
2017-01-31T07:01:20.104Z,20
2017-01-31T07:02:20.074Z,24
2017-01-31T07:03:20.059Z,32
2017-01-31T07:04:20.037Z,40
2017-01-31T07:05:20.026Z,48
2017-01-31T07:06:19.999Z,52
2017-01-31T07:07:19.984Z,56
2017-01-31T07:08:19.974Z,56
2017-01-31T07:09:19.933Z,52
2017-01-31T07:10:19.946Z,52
2017-01-31T07:11:19.908Z,52
2017-01-31T07:12:19.870Z,60
2017-01-31T07:13:19.848Z,72
2017-01-31T07:14:19.827Z,76
2017-01-31T07:15:19.814Z,80
2017-01-31T07:16:19.789Z,88
2017-01-31T07:17:19.771Z,84
2017-01-31T07:18:19.747Z,80
2017-01-31T07:19:19.728Z,84
2017-01-31T07:20:19.711Z,88
2017-01-31T07:21:19.683Z,96
2017-01-31T07:22:19.667Z,100
2017-01-31T07:23:19.653Z,108
2017-01-31T07:24:19.627Z,124
2017-01-31T07:25:19.610Z,140
2017-01-31T07:26:19.182Z,168
2017-01-31T07:27:19.222Z,180
2017-01-31T07:28:19.586Z,200
2017-01-31T07:29:19.531Z,208
2017-01-31T07:30:19.503Z,224
2017-01-31T07:31:19.490Z,260
2017-01-31T07:32:19.462Z,260
2017-01-31T07:33:19.443Z,276
2017-01-31T07:34:19.424Z,316
2017-01-31T07:35:19.397Z,304
2017-01-31T07:36:19.382Z,324
2017-01-31T07:37:19.356Z,296
2017-01-31T07:38:19.332Z,312
2017-01-31T07:39:19.316Z,380
2017-01-31T07:40:19.294Z,432
2017-01-31T07:41:19.282Z,372
2017-01-31T07:42:19.259Z,368
2017-01-31T07:43:19.234Z,384
2017-01-31T07:44:19.212Z,424
2017-01-31T07:45:18.804Z,444
2017-01-31T07:46:18.779Z,464
2017-01-31T07:47:19.149Z,512
2017-01-31T07:48:19.140Z,512
2017-01-31T07:49:19.107Z,532
2017-01-31T07:50:19.091Z,512
2017-01-31T07:51:19.081Z,572
2017-01-31T07:52:19.049Z,620
2017-01-31T07:53:19.026Z,604
2017-01-31T07:54:19.004Z,668
2017-01-31T07:55:18.595Z,648
2017-01-31T07:56:18.965Z,620
2017-01-31T07:57:18.952Z,584
2017-01-31T07:58:18.535Z,544
2017-01-31T07:59:18.911Z,500
2017-01-31T08:00:18.502Z,512
2017-01-31T08:01:18.865Z,608
2017-01-31T08:02:18.879Z,692
2017-01-31T08:03:18.840Z,724
2017-01-31T08:04:18.808Z,728
2017-01-31T08:05:18.985Z,756
2017-01-31T08:06:18.763Z,764
2017-01-31T08:07:18.747Z,740
2017-01-31T08:08:18.718Z,708
2017-01-31T08:09:18.705Z,704
2017-01-31T08:10:18.281Z,704
2017-01-31T08:11:18.667Z,668
2017-01-31T08:12:18.637Z,608
2017-01-31T08:13:18.620Z,556
2017-01-31T08:14:18.205Z,556
2017-01-31T08:15:18.591Z,612
2017-01-31T08:16:18.560Z,696
2017-01-31T08:17:18.545Z,740
2017-01-31T08:18:18.516Z,780
2017-01-31T08:19:18.508Z,808
2017-01-31T08:20:18.486Z,808
2017-01-31T08:21:18.460Z,780
2017-01-31T08:22:17.645Z,744
2017-01-31T08:23:18.417Z,732
2017-01-31T08:24:18.390Z,692
2017-01-31T08:25:18.397Z,640
2017-01-31T08:26:17.962Z,628
2017-01-31T08:27:17.943Z,612
2017-01-31T08:28:18.327Z,604
2017-01-31T08:29:17.501Z,628
2017-01-31T08:30:17.881Z,676
2017-01-31T08:31:18.252Z,744
2017-01-31T08:32:17.835Z,792
2017-01-31T08:33:18.226Z,792
2017-01-31T08:34:17.819Z,828
2017-01-31T08:35:17.814Z,832
2017-01-31T08:36:17.758Z,796
2017-01-31T08:37:17.736Z,772
2017-01-31T08:38:18.111Z,732
2017-01-31T08:39:18.091Z,748
2017-01-31T08:40:18.068Z,788
2017-01-31T08:41:18.085Z,824
2017-01-31T08:42:18.030Z,860
2017-01-31T08:43:18.010Z,904
2017-01-31T08:44:17.989Z,928
2017-01-31T08:45:17.967Z,956
2017-01-31T08:46:17.944Z,1012
2017-01-31T08:47:17.538Z,1052
2017-01-31T08:48:17.509Z,1080
2017-01-31T08:49:17.894Z,1108
2017-01-31T08:50:17.522Z,1168
2017-01-31T08:51:17.889Z,1236
2017-01-31T08:52:17.836Z,1264
2017-01-31T08:53:17.812Z,1224
2017-01-31T08:54:17.786Z,1248
2017-01-31T08:55:17.776Z,1260
2017-01-31T08:56:17.747Z,1276
2017-01-31T08:57:17.736Z,1364
2017-01-31T08:58:17.309Z,1492
2017-01-31T08:59:17.681Z,1592
2017-01-31T09:00:17.663Z,1752
2017-01-31T09:01:17.647Z,1824
2017-01-31T09:02:17.238Z,1880
2017-01-31T09:03:17.609Z,1920
2017-01-31T09:04:17.615Z,1964
2017-01-31T09:05:17.178Z,2036
2017-01-31T09:06:17.551Z,2188
2017-01-31T09:07:17.532Z,2200
2017-01-31T09:08:17.515Z,2208
2017-01-31T09:09:17.498Z,2480
2017-01-31T09:10:17.068Z,2668
2017-01-31T09:11:17.446Z,2832
2017-01-31T09:12:17.426Z,2996
2017-01-31T09:13:17.007Z,3208
2017-01-31T09:14:17.391Z,3236
2017-01-31T09:15:17.372Z,3536
2017-01-31T09:16:17.351Z,3912
2017-01-31T09:17:17.334Z,3900
2017-01-31T09:18:17.318Z,3740
2017-01-31T09:19:17.290Z,3704
2017-01-31T09:20:16.866Z,3316
2017-01-31T09:21:17.249Z,3160
2017-01-31T09:22:17.231Z,3096
2017-01-31T09:23:17.239Z,3076
2017-01-31T09:24:17.188Z,3184
2017-01-31T09:25:17.221Z,3320
2017-01-31T09:26:16.760Z,3112
2017-01-31T09:27:16.732Z,3208
2017-01-31T09:28:17.140Z,3584
2017-01-31T09:29:17.088Z,3812
2017-01-31T09:30:17.072Z,3812
2017-01-31T09:31:17.059Z,3576
2017-01-31T09:32:17.041Z,3052
2017-01-31T09:33:17.006Z,2712
2017-01-31T09:34:16.600Z,2712
2017-01-31T09:35:16.968Z,2668
2017-01-31T09:36:16.955Z,2536
2017-01-31T09:37:16.934Z,2596
2017-01-31T09:38:16.913Z,2588
2017-01-31T09:39:16.896Z,2384
2017-01-31T09:40:16.883Z,2192
2017-01-31T09:41:16.860Z,2228
2017-01-31T09:42:16.839Z,2228
2017-01-31T09:43:16.818Z,2092
2017-01-31T09:44:16.799Z,1992
2017-01-31T09:45:16.779Z,1960
2017-01-31T09:46:16.364Z,1936
2017-01-31T09:47:16.746Z,1916
2017-01-31T09:48:16.722Z,1996
2017-01-31T09:49:16.709Z,2008
2017-01-31T09:50:16.683Z,1888
2017-01-31T09:51:16.662Z,1932
2017-01-31T09:52:16.246Z,1924
2017-01-31T09:53:16.230Z,1784
2017-01-31T09:54:16.600Z,1756
2017-01-31T09:55:16.583Z,1896
2017-01-31T09:56:16.174Z,2080
2017-01-31T09:57:16.560Z,2224
2017-01-31T09:58:16.568Z,2364
2017-01-31T09:59:16.108Z,2408
2017-01-31T10:00:16.113Z,2472
2017-01-31T10:01:16.473Z,2712
2017-01-31T10:02:16.063Z,2960
2017-01-31T10:03:16.424Z,3168
2017-01-31T10:04:16.413Z,3232
2017-01-31T10:05:16.393Z,3080
2017-01-31T10:06:16.179Z,2812
2017-01-31T10:07:16.368Z,2676
2017-01-31T10:08:16.335Z,2672
2017-01-31T10:09:16.322Z,2668
2017-01-31T10:10:16.317Z,2700
2017-01-31T10:11:16.280Z,2672
2017-01-31T10:12:16.255Z,2580
2017-01-31T10:13:16.236Z,2512
2017-01-31T10:14:15.831Z,2476
2017-01-31T10:15:15.408Z,2448
2017-01-31T10:16:16.204Z,2536
2017-01-31T10:17:15.763Z,2664
2017-01-31T10:18:15.745Z,2748
2017-01-31T10:19:16.126Z,2808
2017-01-31T10:20:16.097Z,2764
2017-01-31T10:21:16.082Z,2692
2017-01-31T10:22:16.060Z,2624
2017-01-31T10:23:15.645Z,2576
2017-01-31T10:24:16.058Z,2500
2017-01-31T10:25:14.835Z,2336
2017-01-31T10:26:15.595Z,2200
2017-01-31T10:27:15.971Z,2184
2017-01-31T10:28:15.575Z,2124
2017-01-31T10:29:15.938Z,1988
2017-01-31T10:30:15.114Z,1796
2017-01-31T10:31:15.885Z,1672
2017-01-31T10:32:15.471Z,1720
2017-01-31T10:33:15.872Z,1996
2017-01-31T10:34:15.438Z,2332
2017-01-31T10:35:15.819Z,2524
2017-01-31T10:36:15.011Z,2584
2017-01-31T10:37:15.377Z,2608
2017-01-31T10:38:15.353Z,2580
2017-01-31T10:39:15.732Z,2480
2017-01-31T10:40:15.504Z,2468
2017-01-31T10:41:15.326Z,2576
2017-01-31T10:42:15.288Z,2720
2017-01-31T10:43:15.265Z,2820
2017-01-31T10:44:15.258Z,2824
2017-01-31T10:45:15.223Z,2760
2017-01-31T10:46:15.202Z,2872
2017-01-31T10:47:15.186Z,3144
2017-01-31T10:48:15.162Z,3664
2017-01-31T10:49:15.545Z,3960
2017-01-31T10:50:15.523Z,3976
2017-01-31T10:51:15.501Z,3672
2017-01-31T10:52:15.486Z,3368
2017-01-31T10:53:15.465Z,3344
2017-01-31T10:54:47.123Z,3284
2017-01-31T10:55:15.427Z,3368
2017-01-31T10:56:15.413Z,3712
2017-01-31T10:57:15.390Z,3968
2017-01-31T10:58:15.375Z,4096
2017-01-31T10:59:15.360Z,4064
2017-01-31T11:00:14.942Z,3944
2017-01-31T11:01:15.320Z,3892
2017-01-31T11:02:14.898Z,3868
2017-01-31T11:03:14.879Z,3828
2017-01-31T11:04:14.855Z,3712
2017-01-31T11:05:15.241Z,3636
2017-01-31T11:06:15.215Z,3564
2017-01-31T11:07:14.808Z,3488
2017-01-31T11:08:15.207Z,3444
2017-01-31T11:09:15.198Z,3396
2017-01-31T11:10:15.147Z,3380
2017-01-31T11:11:15.125Z,3416
2017-01-31T11:12:15.101Z,3496
2017-01-31T11:13:15.092Z,3564
2017-01-31T11:14:15.071Z,3548
2017-01-31T11:15:14.657Z,3520
2017-01-31T11:16:15.025Z,3576
2017-01-31T11:17:15.009Z,3636
2017-01-31T11:18:14.990Z,3692
2017-01-31T11:19:14.988Z,3556
2017-01-31T11:20:14.972Z,3244
2017-01-31T11:21:14.962Z,2956
2017-01-31T11:22:14.530Z,2912
2017-01-31T11:23:14.905Z,2960
2017-01-31T11:24:14.884Z,2972
2017-01-31T11:25:14.857Z,2944
2017-01-31T11:26:14.455Z,2904
2017-01-31T11:27:14.820Z,2776
2017-01-31T11:28:14.816Z,2640
2017-01-31T11:29:14.797Z,2576
2017-01-31T11:30:14.767Z,2568
2017-01-31T11:31:14.362Z,2556
2017-01-31T11:32:14.745Z,2456
2017-01-31T11:33:14.313Z,2300
2017-01-31T11:34:14.698Z,2136
2017-01-31T11:35:14.686Z,2048
2017-01-31T11:36:14.661Z,2012
2017-01-31T11:37:14.635Z,2052
2017-01-31T11:38:14.615Z,2148
2017-01-31T11:39:14.594Z,2224
2017-01-31T11:40:14.581Z,2292
2017-01-31T11:41:14.557Z,2348
2017-01-31T11:42:14.537Z,2336
2017-01-31T11:43:14.126Z,2284
2017-01-31T11:44:14.510Z,2228
2017-01-31T11:45:14.532Z,2160
2017-01-31T11:46:14.484Z,2120
2017-01-31T11:47:14.447Z,2100
2017-01-31T11:48:14.423Z,2112
2017-01-31T11:49:14.025Z,2100
2017-01-31T11:50:14.013Z,1920
2017-01-31T11:51:14.362Z,1712
2017-01-31T11:52:13.953Z,1624
2017-01-31T11:53:13.934Z,1576
2017-01-31T11:54:13.916Z,1532
2017-01-31T11:55:13.894Z,1556
2017-01-31T11:56:13.875Z,1632
2017-01-31T11:57:13.854Z,1652
2017-01-31T11:58:13.843Z,1600
2017-01-31T11:59:13.424Z,1472
2017-01-31T12:00:14.199Z,1312
2017-01-31T12:01:14.193Z,1300
2017-01-31T12:02:13.770Z,1460
2017-01-31T12:03:14.144Z,1660
2017-01-31T12:04:14.129Z,1856
2017-01-31T12:05:14.190Z,1860
2017-01-31T12:06:13.890Z,1900
2017-01-31T12:07:14.079Z,1820
2017-01-31T12:08:14.040Z,1704
2017-01-31T12:09:13.625Z,1628
2017-01-31T12:10:14.007Z,1524
2017-01-31T12:11:13.215Z,1468
2017-01-31T12:12:13.971Z,1412
2017-01-31T12:13:13.950Z,1376
2017-01-31T12:14:13.548Z,1376
2017-01-31T12:15:14.187Z,1348
2017-01-31T12:16:13.898Z,1340
2017-01-31T12:17:13.514Z,1348
2017-01-31T12:18:13.857Z,1352
2017-01-31T12:19:13.832Z,1400
2017-01-31T12:20:13.813Z,1392
2017-01-31T12:21:13.800Z,1328
2017-01-31T12:22:13.776Z,1304
2017-01-31T12:23:13.756Z,1340
2017-01-31T12:24:13.762Z,1400
2017-01-31T12:25:13.724Z,1492
2017-01-31T12:26:13.333Z,1576
2017-01-31T12:27:13.861Z,1644
2017-01-31T12:28:13.277Z,1732
2017-01-31T12:29:13.651Z,1800
2017-01-31T12:30:13.232Z,1808
2017-01-31T12:31:13.199Z,1700
2017-01-31T12:32:13.199Z,1644
2017-01-31T12:33:13.564Z,1664
2017-01-31T12:34:13.549Z,1740
2017-01-31T12:35:13.549Z,1788
2017-01-31T12:36:13.105Z,1812
2017-01-31T12:37:13.478Z,1812
2017-01-31T12:38:13.470Z,1764
2017-01-31T12:39:13.447Z,1720
2017-01-31T12:40:13.429Z,1748
2017-01-31T12:41:13.424Z,1796
2017-01-31T12:42:13.403Z,1800
2017-01-31T12:43:12.974Z,1804
2017-01-31T12:44:13.383Z,1820
2017-01-31T12:45:12.932Z,1872
2017-01-31T12:46:12.914Z,1888
2017-01-31T12:47:12.888Z,1904
2017-01-31T12:48:12.870Z,1908
2017-01-31T12:49:13.249Z,1912
2017-01-31T12:50:13.232Z,1924
2017-01-31T12:51:12.814Z,1940
2017-01-31T12:52:13.188Z,1948
2017-01-31T12:53:12.780Z,1984
2017-01-31T12:54:12.756Z,2028
2017-01-31T12:55:13.133Z,2068
2017-01-31T12:56:12.715Z,2088
2017-01-31T12:57:13.098Z,2136
2017-01-31T12:58:13.072Z,2252
2017-01-31T12:59:12.263Z,2452
2017-01-31T13:00:12.640Z,2680
2017-01-31T13:01:13.124Z,2908
2017-01-31T13:02:13.015Z,3100
2017-01-31T13:03:12.584Z,3220
2017-01-31T13:04:12.979Z,3268
2017-01-31T13:05:12.937Z,3256
2017-01-31T13:06:12.522Z,3284
2017-01-31T13:07:12.900Z,3396
2017-01-31T13:08:12.087Z,3572
2017-01-31T13:09:12.875Z,3884
2017-01-31T13:10:12.844Z,4328
2017-01-31T13:11:12.820Z,4804
2017-01-31T13:12:12.408Z,5148
2017-01-31T13:13:12.782Z,5380
2017-01-31T13:14:12.773Z,5556
2017-01-31T13:15:12.349Z,5692
2017-01-31T13:16:12.335Z,5796
2017-01-31T13:17:12.708Z,5932
2017-01-31T13:18:12.693Z,6032
2017-01-31T13:19:12.282Z,6032
2017-01-31T13:20:12.663Z,6016
2017-01-31T13:21:12.644Z,5872
2017-01-31T13:22:12.223Z,5584
2017-01-31T13:23:12.600Z,5248
2017-01-31T13:24:11.798Z,4872
2017-01-31T13:25:12.562Z,4448
2017-01-31T13:26:12.540Z,4104
2017-01-31T13:27:12.519Z,3816
2017-01-31T13:28:12.506Z,3476
2017-01-31T13:29:12.494Z,3124
2017-01-31T13:30:12.076Z,2780
2017-01-31T13:31:12.451Z,2300
2017-01-31T13:32:12.035Z,2144
2017-01-31T13:33:12.425Z,2048
2017-01-31T13:34:12.403Z,2096
2017-01-31T13:35:12.387Z,2272
2017-01-31T13:36:11.973Z,2620
2017-01-31T13:37:12.340Z,3196
2017-01-31T13:38:12.321Z,3900
2017-01-31T13:39:12.307Z,4660
2017-01-31T13:40:12.284Z,5420
2017-01-31T13:41:12.272Z,6136
2017-01-31T13:42:12.250Z,6896
2017-01-31T13:43:12.234Z,7584
2017-01-31T13:44:11.809Z,8100
2017-01-31T13:45:11.808Z,8784
2017-01-31T13:46:12.184Z,9540
2017-01-31T13:47:12.151Z,10036
2017-01-31T13:48:12.137Z,10088
2017-01-31T13:49:11.723Z,9920
2017-01-31T13:50:12.105Z,9912
2017-01-31T13:51:12.078Z,10508
2017-01-31T13:52:12.074Z,11408
2017-01-31T13:53:11.653Z,11884
2017-01-31T13:54:12.030Z,11988
2017-01-31T13:55:12.015Z,11464
2017-01-31T13:56:12.003Z,10324
2017-01-31T13:57:12.013Z,9376
2017-01-31T13:58:11.973Z,9016
2017-01-31T13:59:11.946Z,8664
2017-01-31T14:00:11.524Z,8336
2017-01-31T14:01:11.115Z,8064
2017-01-31T14:02:11.911Z,7708
2017-01-31T14:03:11.480Z,6732
2017-01-31T14:04:11.454Z,5372